createdAt,value
2023-05-22T00:02:54.707Z,55.34
2023-05-22T00:07:59.650Z,55.63
2023-05-22T00:13:03.159Z,56.32
2023-05-22T00:18:08.251Z,56.51
2023-05-22T00:23:15.428Z,56.35
2023-05-22T00:28:19.292Z,56.39
2023-05-22T00:33:22.861Z,56.93
2023-05-22T00:38:32.307Z,55.96
2023-05-22T00:43:36.123Z,57.21
2023-05-22T00:48:39.781Z,57.44
2023-05-22T00:53:45.324Z,57.13
2023-05-22T00:58:49.217Z,58.08
2023-05-22T01:03:54.464Z,56.93
2023-05-22T01:08:59.545Z,56.98
2023-05-22T01:14:10.885Z,57.07
2023-05-22T01:19:34.486Z,55.91
2023-05-22T01:24:57.393Z,56.11
2023-05-22T01:30:27.865Z,56.64
2023-05-22T01:35:36.169Z,58.23
2023-05-22T01:40:40.560Z,59.49
2023-05-22T01:45:44.234Z,59.09
2023-05-22T01:50:53.185Z,58.48
2023-05-22T01:56:02.588Z,59.11
2023-05-22T02:01:09.530Z,59.27
2023-05-22T02:06:16.053Z,58.93
2023-05-22T02:11:22.701Z,59.06
2023-05-22T02:16:28.784Z,58.99
2023-05-22T02:21:34.027Z,59.40
2023-05-22T02:26:39.662Z,59.87
2023-05-22T02:31:43.392Z,59.75
2023-05-22T02:36:51.011Z,60.66
2023-05-22T02:41:54.539Z,60.20
2023-05-22T02:46:58.289Z,60.69
2023-05-22T02:52:03.188Z,60.58
2023-05-22T02:57:06.917Z,60.62
2023-05-22T03:02:10.409Z,60.53
2023-05-22T03:07:15.295Z,60.64
2023-05-22T03:12:18.818Z,60.91
2023-05-22T03:17:22.319Z,61.03
2023-05-22T03:22:27.421Z,61.51
2023-05-22T03:27:31.132Z,61.75
2023-05-22T03:32:37.504Z,60.74
2023-05-22T03:37:44.502Z,61.50
2023-05-22T03:42:49.402Z,62.03
2023-05-22T03:47:53.978Z,62.09
2023-05-22T03:52:58.854Z,62.24
2023-05-22T03:58:02.462Z,62.75
2023-05-22T04:03:07.282Z,62.26
2023-05-22T04:08:12.272Z,62.82
2023-05-22T04:13:16.383Z,63.26
2023-05-22T04:18:19.843Z,64.30
2023-05-22T04:23:24.740Z,63.97
2023-05-22T04:28:30.302Z,63.23
2023-05-22T04:33:35.322Z,64.40
2023-05-22T04:38:41.361Z,64.33
2023-05-22T04:43:48.457Z,65.05
2023-05-22T04:48:52.676Z,65.27
2023-05-22T04:53:58.527Z,65.91
2023-05-22T04:59:02.152Z,66.29
2023-05-22T05:04:06.228Z,65.56
2023-05-22T05:09:11.588Z,66.49
2023-05-22T05:14:15.024Z,66.57
2023-05-22T05:19:21.282Z,65.87
2023-05-22T05:24:26.278Z,65.91
2023-05-22T05:29:30.344Z,66.57
2023-05-22T05:34:39.679Z,66.43
2023-05-22T05:39:57.019Z,65.76
2023-05-22T05:45:01.035Z,65.89
2023-05-22T05:50:07.584Z,65.58
2023-05-22T05:55:13.567Z,66.36
2023-05-22T06:00:18.584Z,65.50
2023-05-22T06:05:26.975Z,64.52
2023-05-22T06:10:39.346Z,65.86
2023-05-22T06:15:52.105Z,65.24
2023-05-22T06:20:59.076Z,64.83
2023-05-22T06:26:05.154Z,64.19
2023-05-22T06:31:09.953Z,64.73
2023-05-22T06:36:16.212Z,64.80
2023-05-22T06:41:22.932Z,64.28
2023-05-22T06:46:26.623Z,63.66
2023-05-22T06:51:34.676Z,63.67
2023-05-22T06:56:44.557Z,63.18
2023-05-22T07:01:52.657Z,61.53
2023-05-22T07:07:11.291Z,60.34
2023-05-22T07:12:16.592Z,60.71
2023-05-22T07:17:22.070Z,60.29
2023-05-22T07:22:26.224Z,59.54
2023-05-22T07:27:32.225Z,58.77
2023-05-22T07:32:38.275Z,60.16
2023-05-22T07:37:43.060Z,57.38
2023-05-22T07:42:48.054Z,57.73
2023-05-22T07:47:54.038Z,58.41
2023-05-22T07:52:59.195Z,57.73
2023-05-22T07:58:05.335Z,57.79
2023-05-22T08:03:13.798Z,57.69
2023-05-22T08:08:17.457Z,57.21
2023-05-22T08:13:23.709Z,55.63
2023-05-22T08:18:29.215Z,55.42
2023-05-22T08:23:35.881Z,55.83
2023-05-22T08:28:44.157Z,55.03
2023-05-22T08:33:47.705Z,55.34
2023-05-22T08:38:51.190Z,53.21
2023-05-22T08:43:56.046Z,54.22
2023-05-22T08:48:59.911Z,53.20
2023-05-22T08:54:07.467Z,52.57
2023-05-22T08:59:12.833Z,51.69
2023-05-22T09:04:16.814Z,51.24
2023-05-22T09:09:22.418Z,52.88
2023-05-22T09:14:31.225Z,51.05
2023-05-22T09:19:35.377Z,52.41
2023-05-22T09:24:43.236Z,50.84
2023-05-22T09:30:13.320Z,52.74
2023-05-22T09:35:22.631Z,51.02
2023-05-22T09:40:28.914Z,47.97
2023-05-22T09:45:38.080Z,47.41
2023-05-22T09:50:42.498Z,48.63
2023-05-22T09:55:49.712Z,51.27
2023-05-22T10:00:56.742Z,50.70
2023-05-22T10:06:01.988Z,49.32
2023-05-22T10:11:10.364Z,51.21
2023-05-22T10:16:17.331Z,50.58
2023-05-22T10:21:23.679Z,50.84
2023-05-22T10:26:30.892Z,47.55
2023-05-22T10:31:45.488Z,48.78
2023-05-22T10:37:18.182Z,48.23
2023-05-22T10:42:24.166Z,46.93
2023-05-22T10:47:29.282Z,47.73
2023-05-22T10:52:33.235Z,45.46
2023-05-22T10:57:41.132Z,44.66
2023-05-22T11:02:47.498Z,44.50
2023-05-22T11:08:11.093Z,45.78
2023-05-22T11:13:14.889Z,43.55
2023-05-22T11:18:19.759Z,44.20
2023-05-22T11:23:26.416Z,42.16
2023-05-22T11:28:31.780Z,42.37
2023-05-22T11:33:36.706Z,41.99
2023-05-22T11:38:41.145Z,43.54
2023-05-22T11:43:45.338Z,41.98
2023-05-22T11:48:50.222Z,42.75
2023-05-22T11:53:53.807Z,42.21
2023-05-22T11:59:00.287Z,40.70
2023-05-22T12:04:06.012Z,41.44
2023-05-22T12:09:09.799Z,40.36
2023-05-22T12:14:13.390Z,41.02
2023-05-22T12:19:18.961Z,41.03
2023-05-22T12:24:23.598Z,39.27
2023-05-22T12:29:27.055Z,40.51
2023-05-22T12:34:34.915Z,41.42
2023-05-22T12:39:38.582Z,40.08
2023-05-22T12:44:42.076Z,39.12
2023-05-22T12:49:47.019Z,40.36
2023-05-22T12:54:51.425Z,39.77
2023-05-22T12:59:54.894Z,37.77
2023-05-22T13:04:59.844Z,38.79
2023-05-22T13:10:04.950Z,36.88
2023-05-22T13:15:11.603Z,37.68
2023-05-22T13:20:16.431Z,37.29
2023-05-22T13:25:20.031Z,36.39
2023-05-22T13:30:23.487Z,37.66
2023-05-22T13:35:28.529Z,38.09
2023-05-22T13:40:31.968Z,37.59
2023-05-22T13:45:38.741Z,36.89
2023-05-22T13:50:44.054Z,36.08
2023-05-22T13:55:47.784Z,36.57
2023-05-22T14:00:52.845Z,36.09
2023-05-22T14:05:57.787Z,34.31
2023-05-22T14:11:01.299Z,35.03
2023-05-22T14:16:04.920Z,34.74
2023-05-22T14:21:09.763Z,33.40
2023-05-22T14:26:14.462Z,35.31
2023-05-22T14:31:18.894Z,37.10
2023-05-22T14:36:23.806Z,37.80
2023-05-22T14:41:27.297Z,38.10
2023-05-22T14:46:31.264Z,37.66
2023-05-22T14:51:36.234Z,38.46
2023-05-22T14:56:39.636Z,38.45
2023-05-22T15:01:43.092Z,39.32
2023-05-22T15:06:47.910Z,39.97
2023-05-22T15:11:51.412Z,39.43
2023-05-22T15:16:54.920Z,40.11
2023-05-22T15:22:08.930Z,41.21
2023-05-22T15:27:19.287Z,40.67
2023-05-22T15:32:22.832Z,38.44
2023-05-22T15:37:30.222Z,39.35
2023-05-22T15:42:35.096Z,39.07
2023-05-22T15:47:38.865Z,38.52
2023-05-22T15:52:43.888Z,37.73
2023-05-22T15:57:47.401Z,35.86
2023-05-22T16:02:51.270Z,35.31
2023-05-22T16:07:56.247Z,36.59
2023-05-22T16:13:00.135Z,34.47
2023-05-22T16:18:03.951Z,36.45
2023-05-22T16:23:08.936Z,37.52
2023-05-22T16:28:12.384Z,37.72
2023-05-22T16:33:15.851Z,38.20
2023-05-22T16:38:20.948Z,38.34
2023-05-22T16:43:24.676Z,38.82
2023-05-22T16:48:28.265Z,38.91
2023-05-22T16:53:33.134Z,38.97
2023-05-22T16:58:39.068Z,39.80
2023-05-22T17:03:42.764Z,39.60
2023-05-22T17:08:47.663Z,39.56
2023-05-22T17:13:51.170Z,39.52
2023-05-22T17:18:55.077Z,40.37
2023-05-22T17:23:59.975Z,40.38
2023-05-22T17:29:03.701Z,40.09
2023-05-22T17:34:07.332Z,41.38
2023-05-22T17:39:12.316Z,42.04
2023-05-22T17:44:15.726Z,41.52
2023-05-22T17:49:19.509Z,43.09
2023-05-22T17:54:24.258Z,42.78
2023-05-22T17:59:27.801Z,42.33
2023-05-22T18:04:31.273Z,42.35
2023-05-22T18:09:36.001Z,42.59
2023-05-22T18:14:39.815Z,43.50
2023-05-22T18:19:43.268Z,45.19
2023-05-22T18:24:48.103Z,45.69
2023-05-22T18:29:51.805Z,47.09
2023-05-22T18:34:55.340Z,46.81
2023-05-22T18:40:05.267Z,47.53
2023-05-22T18:45:11.456Z,48.87
2023-05-22T18:50:16.199Z,48.75
2023-05-22T18:55:25.399Z,48.82
2023-05-22T19:00:31.913Z,49.10
2023-05-22T19:05:47.020Z,49.40
2023-05-22T19:11:06.595Z,48.75
2023-05-22T19:16:12.270Z,50.24
2023-05-22T19:21:20.565Z,50.98
2023-05-22T19:26:28.124Z,50.01
2023-05-22T19:31:32.024Z,48.92
2023-05-22T19:36:38.940Z,49.89
2023-05-22T19:41:45.075Z,49.29
2023-05-22T19:47:00.036Z,50.52
2023-05-22T19:52:21.408Z,50.33
2023-05-22T19:57:35.114Z,48.92
2023-05-22T20:02:48.228Z,50.20
2023-05-22T20:07:56.205Z,51.09
2023-05-22T20:13:04.918Z,50.10
2023-05-22T20:18:10.922Z,50.04
2023-05-22T20:23:17.610Z,50.16
2023-05-22T20:28:28.358Z,49.86
2023-05-22T20:33:33.266Z,50.88
2023-05-22T20:38:38.195Z,50.18
2023-05-22T20:43:44.023Z,49.95
2023-05-22T20:48:52.655Z,50.19
2023-05-22T20:54:05.402Z,49.75
2023-05-22T20:59:19.830Z,49.56
2023-05-22T21:04:25.469Z,51.35
2023-05-22T21:09:32.685Z,51.60
2023-05-22T21:14:44.130Z,51.63
2023-05-22T21:19:51.548Z,51.81
2023-05-22T21:24:59.760Z,52.06
2023-05-22T21:30:07.493Z,52.36
2023-05-22T21:35:12.243Z,52.67
2023-05-22T21:40:22.813Z,53.04
2023-05-22T21:45:31.229Z,54.19
2023-05-22T21:50:36.355Z,55.33
2023-05-22T21:55:39.841Z,56.52
2023-05-22T22:00:44.810Z,56.29
2023-05-22T22:05:50.460Z,57.49
2023-05-22T22:10:54.088Z,57.58
2023-05-22T22:15:59.470Z,58.43
2023-05-22T22:21:03.101Z,58.44
2023-05-22T22:26:06.653Z,58.50
2023-05-22T22:31:11.507Z,58.63
2023-05-22T22:36:15.068Z,58.67
2023-05-22T22:41:18.643Z,59.19
2023-05-22T22:46:23.473Z,60.35
2023-05-22T22:51:26.970Z,60.70
2023-05-22T22:56:30.385Z,61.43
2023-05-22T23:01:35.271Z,62.19
2023-05-22T23:06:41.739Z,62.16
2023-05-22T23:11:45.256Z,62.37
2023-05-22T23:16:50.119Z,62.46
2023-05-22T23:21:53.688Z,63.03
2023-05-22T23:26:57.124Z,62.13
2023-05-22T23:32:02.057Z,62.50
2023-05-22T23:37:06.292Z,63.27
2023-05-22T23:42:11.137Z,64.14
2023-05-22T23:47:39.824Z,63.48
2023-05-22T23:52:43.276Z,65.12
2023-05-22T23:57:46.735Z,65.95
